Time;durP1;ratioP1;P1;durP2;ratioP2;P2;SDS_P1;SDS_P2;PMS_P1;PMS_P2;Temp;Humidity;BMP_temperature;BMP_pressure;BME280_temperature;BME280_humidity;BME280_pressure;Samples;Min_cycle;Max_cycle;Signal;HPM_P1;HPM_P2
2024/03/09 00:00:28;;;;;;;45.22;23.77;;;4.00;99.90;;;;;;5033084;28;20184;-72
2024/03/09 00:02:56;;;;;;;45.67;24.63;;;4.00;99.90;;;;;;5033526;28;20360;-73
2024/03/09 00:05:24;;;;;;;39.15;22.80;;;4.00;99.90;;;;;;5010298;28;20187;-74
2024/03/09 00:07:57;;;;;;;44.38;24.15;;;4.00;99.90;;;;;;5034494;28;20535;-74
2024/03/09 00:10:26;;;;;;;42.78;24.00;;;4.00;99.90;;;;;;5011500;28;20192;-73
2024/03/09 00:12:52;;;;;;;44.58;23.98;;;3.90;99.90;;;;;;5031216;28;20563;-73
2024/03/09 00:15:21;;;;;;;42.90;23.90;;;3.90;99.90;;;;;;5028374;28;20725;-74
2024/03/09 00:17:51;;;;;;;39.78;23.13;;;3.90;99.90;;;;;;5033602;28;20640;-74
2024/03/09 00:20:21;;;;;;;38.80;23.33;;;3.80;99.90;;;;;;5028744;28;20298;-73
2024/03/09 00:22:52;;;;;;;40.35;22.27;;;3.80;99.90;;;;;;5034708;28;20205;-73
2024/03/09 00:25:20;;;;;;;41.45;23.05;;;3.80;99.90;;;;;;5033422;28;20270;-73
2024/03/09 00:27:46;;;;;;;42.10;23.20;;;3.80;99.90;;;;;;5036628;28;20651;-72
2024/03/09 00:30:17;;;;;;;42.75;24.92;;;3.80;99.90;;;;;;5034694;28;21483;-73
2024/03/09 00:32:59;;;;;;;42.33;24.23;;;3.80;99.90;;;;;;5036391;28;20249;-74
2024/03/09 00:35:29;;;;;;;40.05;23.15;;;3.80;99.90;;;;;;5020570;28;20250;-73
2024/03/09 00:37:57;;;;;;;42.25;23.77;;;3.70;99.90;;;;;;5032404;28;20283;-73
2024/03/09 00:40:28;;;;;;;39.88;22.50;;;3.70;99.90;;;;;;5032031;28;21168;-71
2024/03/09 00:42:59;;;;;;;42.28;22.40;;;3.70;99.90;;;;;;5034817;28;20652;-72
2024/03/09 00:45:25;;;;;;;37.70;23.17;;;3.70;99.90;;;;;;5027821;28;20184;-71
2024/03/09 00:47:51;;;;;;;40.88;21.90;;;3.70;99.90;;;;;;5035397;28;20536;-72
2024/03/09 00:50:17;;;;;;;37.53;21.92;;;3.70;99.90;;;;;;5008781;28;20222;-72
2024/03/09 00:52:44;;;;;;;39.75;22.83;;;3.70;99.90;;;;;;5036101;28;20214;-74
2024/03/09 00:55:10;;;;;;;41.88;23.08;;;3.60;99.90;;;;;;5032422;28;20190;-73
2024/03/09 00:57:39;;;;;;;38.88;21.38;;;3.60;99.90;;;;;;5035250;28;20273;-75
2024/03/09 01:00:15;;;;;;;37.25;20.98;;;3.60;99.90;;;;;;5031579;28;20562;-73
2024/03/09 01:02:47;;;;;;;40.28;22.92;;;3.60;99.90;;;;;;5032228;28;21258;-74
2024/03/09 01:05:15;;;;;;;43.58;22.52;;;3.60;99.90;;;;;;5029261;28;20559;-73
2024/03/09 01:07:41;;;;;;;41.55;22.83;;;3.60;99.90;;;;;;5027807;28;20195;-74
2024/03/09 01:10:08;;;;;;;38.40;21.48;;;3.60;99.90;;;;;;5033392;28;20292;-72
2024/03/09 01:12:35;;;;;;;38.70;22.30;;;3.50;99.90;;;;;;5013914;28;20286;-73
2024/03/09 01:15:13;;;;;;;41.25;22.52;;;3.60;99.90;;;;;;5025025;28;20226;-74
2024/03/09 01:17:39;;;;;;;43.67;21.55;;;3.50;99.90;;;;;;5027217;28;20721;-73
2024/03/09 01:20:08;;;;;;;39.13;21.10;;;3.50;99.90;;;;;;5018169;28;20222;-72
2024/03/09 01:22:35;;;;;;;39.85;21.90;;;3.50;99.90;;;;;;5015919;28;20196;-74
2024/03/09 01:25:05;;;;;;;43.95;22.33;;;3.50;99.90;;;;;;5030849;28;20205;-71
2024/03/09 01:27:31;;;;;;;42.88;22.90;;;3.50;99.90;;;;;;5039667;28;20305;-72
2024/03/09 01:30:00;;;;;;;43.33;23.50;;;3.50;99.90;;;;;;5036199;28;20225;-74
2024/03/09 01:32:27;;;;;;;36.45;19.98;;;3.50;99.90;;;;;;5038768;28;20525;-74
2024/03/09 01:34:53;;;;;;;38.65;21.63;;;3.50;99.90;;;;;;5037006;28;20191;-74
2024/03/09 01:37:22;;;;;;;38.88;21.15;;;3.40;99.90;;;;;;5041820;28;20202;-73
2024/03/09 01:39:48;;;;;;;43.08;21.65;;;3.40;99.90;;;;;;5027916;28;20206;-73
2024/03/09 01:42:18;;;;;;;39.80;22.40;;;3.40;99.90;;;;;;5040499;28;20699;-74
2024/03/09 01:44:49;;;;;;;41.67;20.45;;;3.40;99.90;;;;;;5037117;28;20191;-72
2024/03/09 01:47:22;;;;;;;36.22;21.42;;;3.40;99.90;;;;;;5038602;28;20556;-73
2024/03/09 01:49:50;;;;;;;40.63;22.83;;;3.40;99.90;;;;;;5037725;28;20301;-72
2024/03/09 01:52:17;;;;;;;40.35;22.33;;;3.40;99.90;;;;;;5031107;28;20192;-72
2024/03/09 01:54:45;;;;;;;37.38;21.83;;;3.40;99.90;;;;;;5040875;28;20310;-73
2024/03/09 01:57:13;;;;;;;41.58;22.38;;;3.30;99.90;;;;;;5037766;28;20237;-73
2024/03/09 01:59:42;;;;;;;40.50;21.40;;;3.30;99.90;;;;;;5035202;28;20196;-72
2024/03/09 02:02:09;;;;;;;43.90;20.83;;;3.30;99.90;;;;;;5039811;28;20203;-73
2024/03/09 02:04:36;;;;;;;38.97;21.88;;;3.30;99.90;;;;;;5036958;28;20195;-72
2024/03/09 02:07:03;;;;;;;44.10;21.98;;;3.30;99.90;;;;;;5041863;28;20240;-73
2024/03/09 02:09:29;;;;;;;43.40;21.58;;;3.30;99.90;;;;;;5028385;28;20269;-72
2024/03/09 02:12:00;;;;;;;36.70;21.38;;;3.30;99.90;;;;;;5037948;28;20235;-73
2024/03/09 02:14:28;;;;;;;39.17;22.27;;;3.30;99.90;;;;;;5035754;28;20241;-73
2024/03/09 02:16:55;;;;;;;37.90;23.00;;;3.30;99.90;;;;;;5035103;28;20200;-73
2024/03/09 02:19:21;;;;;;;38.25;20.35;;;3.20;99.90;;;;;;5037401;28;20346;-73
2024/03/09 02:21:47;;;;;;;41.42;22.80;;;3.20;99.90;;;;;;5029676;28;20192;-74
2024/03/09 02:24:21;;;;;;;38.95;21.40;;;3.20;99.90;;;;;;5037817;28;20183;-73
2024/03/09 02:26:47;;;;;;;38.38;21.63;;;3.20;99.90;;;;;;5040048;28;20238;-73
2024/03/09 02:29:13;;;;;;;39.10;22.17;;;3.20;99.90;;;;;;5036595;28;20206;-74
2024/03/09 02:31:41;;;;;;;39.33;21.75;;;3.20;99.90;;;;;;5039313;28;20187;-72
2024/03/09 02:34:07;;;;;;;40.25;22.20;;;3.20;99.90;;;;;;5009036;28;20664;-73
2024/03/09 02:36:34;;;;;;;40.53;22.33;;;3.20;99.90;;;;;;5020944;28;20192;-74
2024/03/09 02:39:02;;;;;;;39.55;20.45;;;3.20;99.90;;;;;;5032951;28;21037;-73
2024/03/09 02:41:28;;;;;;;39.72;22.00;;;3.20;99.90;;;;;;5037236;28;20278;-72
2024/03/09 02:43:55;;;;;;;40.75;22.80;;;3.20;99.90;;;;;;5032860;28;20281;-72
2024/03/09 02:46:27;;;;;;;40.20;22.27;;;3.20;99.90;;;;;;5034083;28;21159;-74
2024/03/09 02:48:53;;;;;;;39.88;23.45;;;3.10;99.90;;;;;;5038666;28;20210;-73
2024/03/09 02:51:21;;;;;;;39.35;21.73;;;3.10;99.90;;;;;;5024644;28;20184;-73
2024/03/09 02:53:50;;;;;;;40.95;22.33;;;3.10;99.90;;;;;;5036780;28;20213;-73
2024/03/09 02:56:20;;;;;;;42.72;23.38;;;3.20;99.90;;;;;;5027898;28;20241;-73
2024/03/09 02:58:47;;;;;;;36.15;21.15;;;3.10;99.90;;;;;;5027593;28;20274;-73
2024/03/09 03:01:13;;;;;;;49.13;22.60;;;3.10;99.90;;;;;;5017852;28;20285;-73
2024/03/09 03:06:14;;;;;;;47.10;23.58;;;3.10;99.90;;;;;;5032081;28;20249;-72
2024/03/09 03:08:40;;;;;;;43.50;23.33;;;3.10;99.90;;;;;;5035044;28;20211;-73
2024/03/09 03:11:06;;;;;;;41.50;24.25;;;3.10;99.90;;;;;;5038275;28;20667;-73
2024/03/09 03:13:32;;;;;;;41.95;23.38;;;3.10;99.90;;;;;;5031360;28;20208;-72
2024/03/09 03:15:58;;;;;;;45.55;23.70;;;3.10;99.90;;;;;;5034844;28;20283;-73
2024/03/09 03:18:24;;;;;;;44.53;24.30;;;3.10;99.90;;;;;;5034163;28;20191;-73
2024/03/09 03:20:49;;;;;;;46.95;23.92;;;3.10;99.90;;;;;;5029803;28;20203;-73
2024/03/09 03:23:16;;;;;;;44.20;24.35;;;3.10;99.90;;;;;;5029577;28;20198;-73
2024/03/09 03:25:44;;;;;;;43.67;24.90;;;3.10;99.90;;;;;;5036492;28;21183;-72
2024/03/09 03:28:10;;;;;;;41.17;23.23;;;3.00;99.90;;;;;;5030200;28;20228;-73
2024/03/09 03:30:38;;;;;;;44.17;23.85;;;3.00;99.90;;;;;;5034564;28;20554;-73
2024/03/09 03:33:05;;;;;;;41.95;24.38;;;3.00;99.90;;;;;;5025103;28;20192;-75
2024/03/09 03:35:31;;;;;;;47.05;25.45;;;3.00;99.90;;;;;;5035534;28;20187;-73
2024/03/09 03:37:59;;;;;;;44.47;24.15;;;3.00;99.90;;;;;;5034414;28;21426;-72
2024/03/09 03:40:25;;;;;;;45.38;24.42;;;3.00;99.90;;;;;;5034385;28;20199;-73
2024/03/09 03:42:51;;;;;;;44.78;24.83;;;2.90;99.90;;;;;;5033630;28;20219;-72
2024/03/09 03:45:18;;;;;;;45.05;25.13;;;2.90;99.90;;;;;;5032558;28;21095;-74
2024/03/09 03:47:45;;;;;;;49.72;24.70;;;2.90;99.90;;;;;;5033458;28;20203;-73
2024/03/09 03:50:12;;;;;;;48.70;25.23;;;2.90;99.90;;;;;;5036947;28;20243;-72
2024/03/09 03:52:39;;;;;;;41.80;23.13;;;2.90;99.90;;;;;;5026611;28;20322;-74
2024/03/09 03:55:11;;;;;;;44.30;24.90;;;2.90;99.90;;;;;;5037919;28;20179;-72
2024/03/09 03:57:42;;;;;;;47.13;25.10;;;2.90;99.90;;;;;;5039266;28;20627;-72
2024/03/09 04:00:20;;;;;;;46.63;26.00;;;2.80;99.90;;;;;;5036282;28;20191;-72
2024/03/09 04:02:46;;;;;;;45.80;25.98;;;2.80;99.90;;;;;;5031432;28;20191;-73
2024/03/09 04:05:11;;;;;;;47.97;26.65;;;2.80;99.90;;;;;;5032012;28;20199;-74
2024/03/09 04:07:40;;;;;;;47.22;27.38;;;2.80;99.90;;;;;;5036837;28;20557;-73
2024/03/09 04:10:13;;;;;;;46.00;24.73;;;2.80;99.90;;;;;;5035042;28;20765;-73
2024/03/09 04:12:40;;;;;;;48.08;25.25;;;2.70;99.90;;;;;;5010385;28;20256;-73
2024/03/09 04:15:09;;;;;;;50.15;25.38;;;2.70;99.90;;;;;;5029400;28;20187;-73
2024/03/09 04:17:35;;;;;;;45.15;26.48;;;2.70;99.90;;;;;;5038629;28;20738;-74
2024/03/09 04:20:04;;;;;;;46.65;25.52;;;2.70;99.90;;;;;;5032194;28;20195;-73
2024/03/09 04:22:33;;;;;;;54.00;26.40;;;2.70;99.90;;;;;;5027108;28;20245;-73
2024/03/09 04:25:03;;;;;;;45.63;26.45;;;2.60;99.90;;;;;;5025471;28;20889;-73
2024/03/09 04:27:29;;;;;;;48.90;27.05;;;2.60;99.90;;;;;;5029976;28;20234;-73
2024/03/09 04:29:56;;;;;;;50.30;27.33;;;2.60;99.90;;;;;;5035928;28;21063;-73
2024/03/09 04:32:27;;;;;;;49.33;27.67;;;2.60;99.90;;;;;;5035016;28;20187;-74
2024/03/09 04:34:54;;;;;;;48.58;27.75;;;2.60;99.90;;;;;;5028266;28;20201;-73
2024/03/09 04:37:25;;;;;;;50.03;27.35;;;2.60;99.90;;;;;;5034008;28;20274;-74
2024/03/09 04:39:55;;;;;;;49.70;26.58;;;2.60;99.90;;;;;;5032656;28;20237;-74
2024/03/09 04:42:24;;;;;;;49.33;28.27;;;2.50;99.90;;;;;;5033161;28;20203;-74
2024/03/09 04:44:51;;;;;;;46.70;25.15;;;2.50;99.90;;;;;;5036551;28;20593;-73
2024/03/09 04:47:22;;;;;;;50.95;27.92;;;2.50;99.90;;;;;;5028408;28;20686;-72
2024/03/09 04:49:48;;;;;;;53.30;27.65;;;2.50;99.90;;;;;;5015465;28;20772;-73
2024/03/09 04:52:14;;;;;;;51.35;27.90;;;2.40;99.90;;;;;;5033779;28;20187;-73
2024/03/09 04:54:43;;;;;;;51.17;27.55;;;2.50;99.90;;;;;;5035431;28;20273;-73
2024/03/09 04:57:17;;;;;;;50.03;27.45;;;2.40;99.90;;;;;;5013518;28;20325;-71
2024/03/09 04:59:43;;;;;;;50.60;28.38;;;2.40;99.90;;;;;;5032277;28;20199;-72
2024/03/09 05:02:10;;;;;;;49.03;26.50;;;2.40;99.90;;;;;;5034957;28;20199;-72
2024/03/09 05:04:36;;;;;;;49.03;28.40;;;2.40;99.90;;;;;;5031852;28;20190;-72
2024/03/09 05:07:03;;;;;;;49.42;27.67;;;2.40;99.90;;;;;;5032182;28;20187;-73
2024/03/09 05:09:30;;;;;;;53.20;29.10;;;2.40;99.90;;;;;;5009016;28;20222;-73
2024/03/09 05:11:57;;;;;;;49.25;27.98;;;2.40;99.90;;;;;;5026977;28;20280;-72
2024/03/09 05:14:23;;;;;;;54.13;28.77;;;2.30;99.90;;;;;;4993998;28;20655;-73
2024/03/09 05:16:50;;;;;;;52.13;29.88;;;2.40;99.90;;;;;;5032290;28;20241;-73
2024/03/09 05:19:17;;;;;;;54.47;30.67;;;2.30;99.90;;;;;;4993078;28;20196;-72
2024/03/09 05:21:44;;;;;;;54.58;29.00;;;2.30;99.90;;;;;;5031943;28;20282;-73
2024/03/09 05:24:10;;;;;;;57.38;29.80;;;2.30;99.90;;;;;;5036815;28;20601;-72
2024/03/09 05:26:36;;;;;;;53.95;29.50;;;2.30;99.90;;;;;;5031323;28;20199;-73
2024/03/09 05:29:02;;;;;;;54.50;29.70;;;2.30;99.90;;;;;;5031517;28;20305;-73
2024/03/09 05:31:30;;;;;;;54.33;29.25;;;2.30;99.90;;;;;;5036168;28;20184;-73
2024/03/09 05:33:56;;;;;;;53.10;29.33;;;2.20;99.90;;;;;;5029072;28;20219;-73
2024/03/09 05:36:23;;;;;;;52.65;29.83;;;2.30;99.90;;;;;;5032921;28;20187;-74
2024/03/09 05:38:49;;;;;;;54.97;31.10;;;2.20;99.90;;;;;;5036634;28;20199;-73
2024/03/09 05:41:19;;;;;;;54.53;30.75;;;2.20;99.90;;;;;;5032586;28;20203;-75
2024/03/09 05:43:49;;;;;;;53.20;29.88;;;2.20;99.90;;;;;;5007608;28;20199;-74
2024/03/09 05:46:15;;;;;;;58.88;31.52;;;2.20;99.90;;;;;;5025760;28;20199;-72
2024/03/09 05:48:45;;;;;;;54.45;30.25;;;2.20;99.90;;;;;;5028941;28;20229;-73
2024/03/09 05:51:18;;;;;;;57.33;31.35;;;2.20;99.90;;;;;;5032357;28;20246;-72
2024/03/09 05:53:44;;;;;;;53.70;30.70;;;2.20;99.90;;;;;;5031510;28;20628;-74
2024/03/09 05:56:13;;;;;;;62.03;32.20;;;2.20;99.90;;;;;;5031989;28;20554;-78
2024/03/09 05:58:39;;;;;;;57.25;31.63;;;2.10;99.90;;;;;;4986347;28;20283;-72
2024/03/09 06:01:05;;;;;;;57.03;32.05;;;2.10;99.90;;;;;;5033275;28;20199;-72
2024/03/09 06:03:31;;;;;;;54.50;31.27;;;2.20;99.90;;;;;;5031331;28;20604;-74
2024/03/09 06:05:57;;;;;;;56.53;31.58;;;2.10;99.90;;;;;;5027829;28;20194;-72
2024/03/09 06:08:23;;;;;;;59.22;31.73;;;2.10;99.90;;;;;;5033663;28;20191;-72
2024/03/09 06:10:49;;;;;;;59.95;31.27;;;2.10;99.90;;;;;;5027018;28;20180;-73
2024/03/09 06:13:18;;;;;;;58.47;31.73;;;2.10;99.90;;;;;;5033042;28;20195;-72
2024/03/09 06:15:45;;;;;;;60.45;33.08;;;2.10;99.90;;;;;;5037533;28;20188;-73
2024/03/09 06:18:11;;;;;;;58.13;31.98;;;2.10;99.90;;;;;;5037201;28;22195;-73
2024/03/09 06:20:41;;;;;;;60.72;32.50;;;2.10;99.90;;;;;;5037620;28;20219;-74
2024/03/09 06:23:07;;;;;;;61.03;32.95;;;2.10;99.90;;;;;;5037990;28;20632;-75
2024/03/09 06:25:32;;;;;;;59.88;32.90;;;2.10;99.90;;;;;;5032990;28;20256;-75
2024/03/09 06:28:03;;;;;;;64.07;33.17;;;2.10;99.90;;;;;;5034880;28;20266;-75
2024/03/09 06:30:29;;;;;;;63.33;33.65;;;2.20;99.90;;;;;;5036014;28;20297;-76
2024/03/09 06:32:57;;;;;;;60.47;32.75;;;2.20;99.90;;;;;;5034327;28;20278;-73
2024/03/09 06:35:25;;;;;;;61.63;32.88;;;2.20;99.90;;;;;;5033911;28;20187;-73
2024/03/09 06:38:06;;;;;;;62.55;34.42;;;2.20;99.90;;;;;;5035868;28;20195;-72
2024/03/09 06:40:41;;;;;;;63.30;33.95;;;2.30;99.90;;;;;;5037300;28;20186;-72
2024/03/09 06:43:11;;;;;;;58.47;33.47;;;2.30;99.90;;;;;;5031569;28;20205;-74
2024/03/09 06:45:39;;;;;;;64.40;33.60;;;2.40;99.90;;;;;;5031746;28;20195;-72
2024/03/09 06:48:06;;;;;;;63.42;32.53;;;2.40;99.90;;;;;;5036686;28;20225;-72
2024/03/09 06:50:34;;;;;;;59.55;33.50;;;2.40;99.90;;;;;;5024305;28;20205;-75
2024/03/09 06:53:00;;;;;;;56.60;32.05;;;2.40;99.90;;;;;;5026478;28;20198;-72
2024/03/09 06:55:29;;;;;;;58.75;29.85;;;2.50;99.90;;;;;;5037879;28;20237;-77
2024/03/09 06:58:01;;;;;;;60.95;34.15;;;2.50;99.90;;;;;;5029042;28;20199;-74
2024/03/09 07:00:29;;;;;;;60.38;32.38;;;2.60;99.90;;;;;;5034842;28;20230;-73
2024/03/09 07:02:58;;;;;;;59.63;33.22;;;2.60;99.90;;;;;;5030983;28;20221;-74
2024/03/09 07:05:30;;;;;;;71.60;36.13;;;2.70;99.90;;;;;;5034289;28;20583;-72
2024/03/09 07:07:59;;;;;;;63.20;34.33;;;2.70;99.90;;;;;;5037492;28;20282;-78
2024/03/09 07:10:27;;;;;;;66.60;35.53;;;2.80;99.90;;;;;;5036843;28;20211;-74
2024/03/09 07:12:53;;;;;;;59.60;33.10;;;2.80;99.90;;;;;;5038021;28;20203;-72
2024/03/09 07:15:22;;;;;;;63.45;33.78;;;2.80;99.90;;;;;;5037339;28;20241;-72
2024/03/09 07:17:49;;;;;;;62.47;33.47;;;2.80;99.90;;;;;;5038156;28;20207;-73
2024/03/09 07:20:18;;;;;;;59.45;33.17;;;2.90;99.90;;;;;;5036696;28;20195;-74
2024/03/09 07:22:48;;;;;;;65.85;35.08;;;2.90;99.90;;;;;;5029090;28;20767;-72
2024/03/09 07:25:14;;;;;;;58.72;34.25;;;2.90;99.90;;;;;;5034231;28;20650;-73
2024/03/09 07:27:41;;;;;;;62.83;34.47;;;3.00;99.90;;;;;;5031714;28;20231;-73
2024/03/09 07:30:09;;;;;;;64.60;34.33;;;3.10;99.90;;;;;;5034281;28;20207;-73
2024/03/09 07:32:39;;;;;;;63.97;34.83;;;3.10;99.90;;;;;;5030922;28;20272;-73
2024/03/09 07:35:15;;;;;;;60.20;32.30;;;3.20;99.90;;;;;;5011501;28;21181;-73
2024/03/09 07:37:45;;;;;;;59.67;35.20;;;3.20;99.90;;;;;;5033144;28;20195;-73
2024/03/09 07:40:15;;;;;;;65.90;35.95;;;3.20;99.90;;;;;;5035309;28;20195;-74
2024/03/09 07:42:42;;;;;;;64.50;35.08;;;3.30;99.90;;;;;;5034935;28;21164;-73
2024/03/09 07:45:15;;;;;;;64.68;37.95;;;3.40;99.90;;;;;;5033099;28;20195;-72
2024/03/09 07:47:43;;;;;;;65.38;35.63;;;3.40;99.90;;;;;;5014081;28;20244;-75
2024/03/09 07:50:14;;;;;;;62.50;36.50;;;3.40;99.90;;;;;;5039122;28;20249;-75
2024/03/09 07:52:46;;;;;;;65.70;36.05;;;3.50;99.90;;;;;;5023255;28;20195;-73
2024/03/09 07:55:12;;;;;;;62.80;34.13;;;3.60;99.90;;;;;;5035694;28;20194;-73
2024/03/09 07:57:40;;;;;;;54.83;30.92;;;3.60;99.90;;;;;;5034514;28;20282;-74
2024/03/09 08:00:07;;;;;;;66.20;36.22;;;3.70;99.90;;;;;;5028520;28;20637;-73
2024/03/09 08:02:33;;;;;;;65.82;36.58;;;3.80;99.90;;;;;;5038826;28;20199;-74
2024/03/09 08:05:03;;;;;;;67.25;36.17;;;3.90;99.90;;;;;;5035124;28;20195;-73
2024/03/09 08:07:32;;;;;;;64.38;36.83;;;3.90;99.90;;;;;;5015404;28;20665;-73
2024/03/09 08:09:58;;;;;;;65.38;35.60;;;4.00;99.90;;;;;;5037044;28;20219;-74
2024/03/09 08:12:24;;;;;;;64.63;35.63;;;4.10;99.90;;;;;;5033434;28;20202;-75
2024/03/09 08:14:50;;;;;;;66.05;36.50;;;4.10;99.90;;;;;;5036506;28;20375;-73
2024/03/09 08:17:16;;;;;;;65.38;36.70;;;4.20;99.90;;;;;;5031293;28;20268;-76
2024/03/09 08:19:42;;;;;;;66.15;36.28;;;4.20;99.90;;;;;;5018247;28;20203;-73
2024/03/09 08:22:08;;;;;;;67.55;35.25;;;4.30;99.90;;;;;;5030662;28;20253;-73
2024/03/09 08:24:35;;;;;;;60.72;35.80;;;4.40;99.90;;;;;;5013516;28;20214;-73
2024/03/09 08:27:02;;;;;;;67.43;37.15;;;4.50;99.90;;;;;;5035932;28;20204;-72
2024/03/09 08:29:29;;;;;;;59.10;35.22;;;4.50;99.90;;;;;;5037381;28;20499;-73
2024/03/09 08:31:57;;;;;;;65.57;36.85;;;4.50;99.90;;;;;;5033750;28;20203;-72
2024/03/09 08:34:23;;;;;;;62.22;35.55;;;4.60;99.90;;;;;;5031671;28;20187;-72
2024/03/09 08:36:48;;;;;;;63.78;35.97;;;4.60;99.90;;;;;;5026909;28;20443;-72
2024/03/09 08:39:14;;;;;;;54.03;33.28;;;4.70;99.90;;;;;;5031114;28;20192;-75
2024/03/09 08:41:40;;;;;;;59.92;34.97;;;4.80;99.90;;;;;;5035209;28;20187;-74
2024/03/09 08:44:07;;;;;;;61.92;34.58;;;4.80;99.90;;;;;;5031064;28;20195;-73
2024/03/09 08:46:33;;;;;;;62.83;34.17;;;4.90;99.90;;;;;;5011859;28;20202;-73
2024/03/09 08:48:59;;;;;;;61.95;36.92;;;5.00;99.90;;;;;;5034495;28;20203;-76
2024/03/09 08:51:25;;;;;;;63.90;35.50;;;5.00;99.90;;;;;;5025833;28;20556;-74
2024/03/09 08:53:51;;;;;;;60.22;34.60;;;5.10;99.90;;;;;;5026016;28;20179;-75
2024/03/09 08:56:17;;;;;;;60.47;35.90;;;5.20;99.90;;;;;;5027339;28;20187;-75
2024/03/09 08:58:43;;;;;;;52.45;30.73;;;5.20;99.90;;;;;;5030715;28;20210;-74
2024/03/09 09:01:10;;;;;;;54.20;33.10;;;5.30;99.90;;;;;;5031701;28;20207;-74
2024/03/09 09:03:36;;;;;;;59.17;34.00;;;5.40;99.90;;;;;;5034761;28;20305;-73
2024/03/09 09:06:03;;;;;;;61.47;35.45;;;5.50;99.90;;;;;;5009932;28;20673;-75
2024/03/09 09:08:29;;;;;;;59.22;34.53;;;5.60;99.90;;;;;;5025223;28;20266;-74
2024/03/09 09:10:55;;;;;;;60.40;36.97;;;5.60;99.90;;;;;;5031507;28;20192;-73
2024/03/09 09:13:24;;;;;;;61.47;34.65;;;5.70;99.90;;;;;;5028689;28;20183;-73
2024/03/09 09:15:51;;;;;;;61.22;34.22;;;5.80;99.90;;;;;;5032498;28;20244;-74
2024/03/09 09:18:17;;;;;;;56.55;34.53;;;5.90;99.90;;;;;;5027405;28;20240;-75
2024/03/09 09:20:48;;;;;;;53.13;32.65;;;5.90;99.90;;;;;;5030299;28;21381;-72
2024/03/09 09:23:14;;;;;;;53.85;33.08;;;6.00;99.90;;;;;;5027125;28;20270;-73
2024/03/09 09:25:41;;;;;;;54.25;32.65;;;6.10;99.90;;;;;;5023420;28;20265;-75
2024/03/09 09:28:08;;;;;;;55.40;33.28;;;6.10;99.90;;;;;;5027509;28;20258;-71
2024/03/09 09:30:34;;;;;;;52.65;32.35;;;6.20;99.90;;;;;;5030042;28;20211;-74
2024/03/09 09:33:00;;;;;;;53.50;34.00;;;6.30;99.90;;;;;;5029307;28;20678;-71
2024/03/09 09:35:26;;;;;;;62.28;35.08;;;6.30;99.90;;;;;;5035045;28;20194;-72
2024/03/09 09:37:59;;;;;;;52.63;33.20;;;6.30;99.90;;;;;;5031089;28;20196;-72
2024/03/09 09:40:25;;;;;;;45.83;28.10;;;6.40;99.90;;;;;;5035208;28;20256;-73
2024/03/09 09:42:52;;;;;;;54.45;33.80;;;6.50;99.90;;;;;;5028570;28;20204;-75
2024/03/09 09:45:22;;;;;;;55.20;32.17;;;6.50;99.90;;;;;;5032849;28;20608;-73
2024/03/09 09:47:48;;;;;;;55.20;34.15;;;6.60;99.90;;;;;;5036701;28;20203;-72
2024/03/09 09:50:21;;;;;;;51.53;29.23;;;6.60;99.90;;;;;;5028525;28;20203;-73
2024/03/09 09:52:49;;;;;;;53.83;31.48;;;6.60;99.90;;;;;;5015035;28;20249;-72
2024/03/09 09:55:16;;;;;;;53.03;33.40;;;6.70;99.90;;;;;;5036485;28;20191;-74
2024/03/09 09:57:43;;;;;;;54.70;34.47;;;6.70;99.90;;;;;;5035419;28;20233;-72
2024/03/09 10:00:13;;;;;;;55.03;32.83;;;6.70;99.90;;;;;;5036113;28;20323;-75
2024/03/09 10:02:42;;;;;;;53.00;32.95;;;6.70;99.90;;;;;;5032930;28;20195;-74
2024/03/09 10:05:15;;;;;;;56.60;33.40;;;6.80;99.90;;;;;;5031614;28;20231;-74
2024/03/09 10:08:04;;;;;;;58.30;33.90;;;6.80;99.90;;;;;;5033553;28;20192;-74
2024/03/09 10:10:48;;;;;;;59.78;36.63;;;6.90;99.90;;;;;;5035637;28;20224;-74
2024/03/09 10:13:15;;;;;;;54.25;32.88;;;6.90;99.90;;;;;;5035639;28;20188;-73
2024/03/09 10:15:48;;;;;;;52.40;33.53;;;7.00;99.90;;;;;;5032290;28;20184;-72
2024/03/09 10:18:19;;;;;;;51.60;32.03;;;7.10;99.90;;;;;;5033650;28;20212;-75
2024/03/09 10:20:44;;;;;;;53.08;32.00;;;7.10;99.90;;;;;;5033668;28;20183;-73
2024/03/09 10:23:13;;;;;;;48.78;30.70;;;7.20;99.90;;;;;;5032070;28;20224;-73
2024/03/09 10:25:42;;;;;;;52.78;31.83;;;7.20;99.90;;;;;;5017879;28;20206;-73
2024/03/09 10:28:10;;;;;;;49.40;30.98;;;7.30;99.90;;;;;;5035946;28;20644;-74
2024/03/09 10:30:37;;;;;;;54.97;31.48;;;7.30;99.90;;;;;;5011331;28;20204;-72
2024/03/09 10:33:16;;;;;;;50.47;32.22;;;7.40;99.90;;;;;;5028788;28;20267;-72
2024/03/09 10:35:48;;;;;;;47.42;30.73;;;7.40;99.90;;;;;;5033814;28;20597;-72
2024/03/09 10:38:18;;;;;;;49.78;30.92;;;7.50;99.90;;;;;;5031353;28;20230;-74
2024/03/09 10:40:43;;;;;;;47.85;30.50;;;7.50;99.90;;;;;;5030970;28;20263;-73
2024/03/09 10:43:11;;;;;;;51.58;31.52;;;7.50;99.90;;;;;;5031766;28;20299;-73
2024/03/09 10:45:38;;;;;;;50.00;30.15;;;7.60;99.90;;;;;;5029920;28;20191;-74
2024/03/09 10:48:09;;;;;;;45.15;29.27;;;7.70;99.90;;;;;;5035227;28;20199;-74
2024/03/09 10:51:14;;;;;;;48.10;31.13;;;7.70;99.90;;;;;;5032864;28;20222;-74
2024/03/09 10:54:14;;;;;;;49.67;30.02;;;7.80;99.90;;;;;;5034763;28;20223;-73
2024/03/09 10:56:42;;;;;;;48.60;30.48;;;7.80;99.90;;;;;;5031415;28;20640;-74
2024/03/09 10:59:14;;;;;;;49.80;31.15;;;7.90;99.90;;;;;;5029167;28;20283;-74
2024/03/09 11:01:42;;;;;;;48.03;30.17;;;8.00;99.90;;;;;;5032608;28;20602;-73
2024/03/09 11:04:08;;;;;;;46.78;30.15;;;8.10;99.90;;;;;;5029576;28;20210;-74
2024/03/09 11:06:34;;;;;;;49.67;30.27;;;8.10;99.90;;;;;;5037416;28;20600;-75
2024/03/09 11:09:03;;;;;;;49.10;30.42;;;8.20;99.90;;;;;;5031582;28;20290;-72
2024/03/09 11:11:31;;;;;;;49.17;30.50;;;8.30;99.90;;;;;;5036295;28;20311;-72
2024/03/09 11:14:02;;;;;;;45.40;29.70;;;8.40;99.90;;;;;;5032149;28;20191;-74
2024/03/09 11:16:29;;;;;;;45.35;26.98;;;8.40;99.90;;;;;;5033097;28;20203;-74
2024/03/09 11:18:55;;;;;;;44.38;28.77;;;8.50;99.90;;;;;;5032881;28;20211;-73
2024/03/09 11:21:34;;;;;;;44.50;29.73;;;8.50;99.90;;;;;;5032284;28;20203;-74
2024/03/09 11:24:07;;;;;;;46.60;30.38;;;8.60;99.90;;;;;;5035501;28;20183;-74
2024/03/09 11:26:40;;;;;;;46.55;30.50;;;8.70;99.90;;;;;;5036915;28;20195;-73
2024/03/09 11:29:10;;;;;;;50.40;29.70;;;8.80;99.90;;;;;;5030181;28;20302;-74
2024/03/09 11:31:40;;;;;;;46.53;28.77;;;8.80;99.90;;;;;;5035021;28;20964;-75
2024/03/09 11:34:13;;;;;;;46.70;28.48;;;8.90;99.90;;;;;;5033370;28;20184;-73
2024/03/09 11:36:54;;;;;;;49.75;29.75;;;8.90;99.90;;;;;;5029298;28;20194;-74
2024/03/09 11:39:23;;;;;;;45.17;28.30;;;9.00;99.90;;;;;;5033347;28;20209;-75
2024/03/09 11:41:50;;;;;;;42.92;27.50;;;9.00;99.90;;;;;;5032560;28;20460;-75
2024/03/09 11:44:17;;;;;;;44.50;28.30;;;9.10;99.90;;;;;;5035587;28;20191;-75
2024/03/09 11:46:43;;;;;;;43.67;28.17;;;9.10;99.90;;;;;;5014574;28;20198;-72
2024/03/09 11:49:08;;;;;;;44.75;26.67;;;9.10;99.90;;;;;;5010757;28;20268;-73
2024/03/09 11:51:35;;;;;;;44.38;28.98;;;9.20;99.90;;;;;;5031299;28;20191;-74
2024/03/09 11:54:08;;;;;;;37.20;22.73;;;9.10;99.90;;;;;;5027647;28;20196;-73
2024/03/09 11:56:35;;;;;;;43.83;28.73;;;9.10;99.90;;;;;;5028792;28;20203;-76
2024/03/09 11:59:02;;;;;;;46.15;28.85;;;9.20;99.90;;;;;;5007305;28;20195;-73
2024/03/09 12:01:28;;;;;;;43.28;27.60;;;9.10;99.90;;;;;;5025887;28;20619;-74
2024/03/09 12:03:59;;;;;;;47.40;29.40;;;9.20;99.90;;;;;;5028307;28;20208;-74
2024/03/09 12:06:27;;;;;;;41.13;27.75;;;9.20;99.90;;;;;;5034616;28;20191;-74
2024/03/09 12:08:54;;;;;;;42.28;25.98;;;9.20;99.90;;;;;;5030755;28;20230;-72
2024/03/09 12:11:21;;;;;;;44.35;28.80;;;9.30;99.90;;;;;;5032226;28;20607;-74
2024/03/09 12:13:47;;;;;;;45.80;27.75;;;9.40;99.90;;;;;;5032626;28;20198;-76
2024/03/09 12:16:14;;;;;;;43.17;27.70;;;9.40;99.90;;;;;;5011072;28;20188;-73
2024/03/09 12:18:50;;;;;;;42.58;27.33;;;9.50;99.90;;;;;;5029461;28;20191;-74
2024/03/09 12:21:20;;;;;;;41.85;27.08;;;9.50;99.90;;;;;;5036210;28;20690;-72
2024/03/09 12:23:52;;;;;;;46.38;27.02;;;9.60;99.90;;;;;;5033715;28;20207;-73
2024/03/09 12:26:20;;;;;;;41.10;26.27;;;9.70;99.90;;;;;;5031010;28;20259;-73
2024/03/09 12:28:46;;;;;;;44.10;25.65;;;9.70;99.90;;;;;;5027388;28;20273;-74
2024/03/09 12:31:16;;;;;;;40.22;24.75;;;9.80;99.90;;;;;;5030062;28;20190;-73
2024/03/09 12:33:45;;;;;;;40.97;25.63;;;9.80;99.90;;;;;;5028866;28;20187;-74
2024/03/09 12:36:15;;;;;;;40.63;25.90;;;9.80;99.90;;;;;;5029475;28;20184;-73
2024/03/09 12:38:41;;;;;;;41.05;26.65;;;9.90;99.90;;;;;;5025305;28;20196;-76
2024/03/09 12:41:23;;;;;;;38.50;24.55;;;10.00;99.90;;;;;;5036866;28;20192;-75
2024/03/09 12:43:49;;;;;;;42.00;23.77;;;10.00;99.90;;;;;;5030420;28;20209;-75